Time;durP1;ratioP1;P1;durP2;ratioP2;P2;SDS_P1;SDS_P2;PMS_P1;PMS_P2;Temp;Humidity;BMP_temperature;BMP_pressure;BME280_temperature;BME280_humidity;BME280_pressure;Samples;Min_cycle;Max_cycle;Signal;HPM_P1;HPM_P2
2024/02/05 00:00:24;;;;;;;11.50;2.80;;;;;;;12.20;61.41;98042.30;68019;1275;1016380;-69
2024/02/05 00:03:47;;;;;;;17.00;3.30;;;;;;;11.86;63.22;98040.20;68058;1275;1018771;-70
2024/02/05 00:06:49;;;;;;;14.30;2.70;;;;;;;11.99;63.23;98052.52;68008;1275;1019324;-70
2024/02/05 00:09:52;;;;;;;11.60;2.30;;;;;;;11.97;63.61;98053.41;68026;1275;1016530;-70
2024/02/05 00:12:54;;;;;;;10.90;2.20;;;;;;;12.00;63.63;98045.79;68085;1275;1018213;-69
2024/02/05 00:15:57;;;;;;;6.90;2.00;;;;;;;12.02;63.75;98035.32;68034;1275;1016458;-69
2024/02/05 00:18:59;;;;;;;15.00;2.40;;;;;;;11.98;64.38;98037.20;67982;1275;1016490;-70
2024/02/05 00:22:02;;;;;;;9.90;2.10;;;;;;;11.93;64.30;98037.76;67992;1274;1016523;-69
2024/02/05 00:25:04;;;;;;;7.00;2.00;;;;;;;11.90;64.55;98033.09;68065;1274;1016567;-69
2024/02/05 00:28:08;;;;;;;8.80;1.70;;;;;;;11.91;64.41;98026.32;67990;1275;1016390;-70
2024/02/05 00:31:10;;;;;;;8.00;1.90;;;;;;;11.78;65.06;98031.75;67992;1275;1016491;-64
2024/02/05 00:34:13;;;;;;;;;;;;;;;11.67;66.29;98039.38;68071;1275;1016373;-70
2024/02/05 00:37:16;;;;;;;9.10;1.90;;;;;;;11.71;66.30;98034.91;68065;1275;1016466;-70
2024/02/05 00:40:18;;;;;;;4.20;1.50;;;;;;;11.68;66.96;98036.90;68004;1275;1016181;-70
2024/02/05 00:43:21;;;;;;;5.50;1.60;;;;;;;11.48;67.50;98039.14;68036;1275;1016428;-69
2024/02/05 00:46:23;;;;;;;6.50;1.80;;;;;;;11.70;67.46;98025.12;68076;1275;1015975;-65
2024/02/05 00:49:26;;;;;;;6.30;1.50;;;;;;;11.75;67.18;98034.53;68002;1274;1016657;-68
2024/02/05 00:52:28;;;;;;;6.20;1.80;;;;;;;11.54;68.61;98029.08;68042;1275;1016390;-62
2024/02/05 00:55:31;;;;;;;6.60;1.70;;;;;;;11.49;69.53;98017.87;68052;1275;1019933;-68
2024/02/05 00:58:33;;;;;;;9.90;1.90;;;;;;;11.54;69.74;98025.58;68048;1275;1018202;-70
2024/02/05 01:01:36;;;;;;;10.20;1.70;;;;;;;11.65;69.38;98009.65;68021;1275;1016479;-70
2024/02/05 01:04:39;;;;;;;8.10;1.80;;;;;;;11.42;70.66;98023.49;68002;1275;1018362;-70
2024/02/05 01:07:41;;;;;;;5.30;1.50;;;;;;;11.18;72.80;98012.69;68040;1275;1016356;-68
2024/02/05 01:10:44;;;;;;;5.30;1.80;;;;;;;11.26;72.84;98010.35;67998;1275;1016481;-70
2024/02/05 01:13:46;;;;;;;5.90;1.80;;;;;;;11.29;72.73;98013.27;67987;1275;1016455;-70
2024/02/05 01:16:49;;;;;;;8.10;2.20;;;;;;;11.32;72.57;98007.26;68067;1275;1016342;-70
2024/02/05 01:19:52;;;;;;;5.00;1.40;;;;;;;11.25;72.75;97986.45;68024;1275;1016146;-70
2024/02/05 01:22:54;;;;;;;7.00;1.70;;;;;;;11.37;72.18;97989.56;68005;1275;1016479;-68
2024/02/05 01:25:57;;;;;;;7.20;1.50;;;;;;;11.24;73.16;97992.11;68043;1274;1016586;-70
2024/02/05 01:29:00;;;;;;;6.10;1.80;;;;;;;11.17;73.34;97985.46;68024;1275;1016332;-70
2024/02/05 01:32:02;;;;;;;7.80;1.70;;;;;;;11.19;73.90;97985.98;67998;1275;1016323;-70
2024/02/05 01:35:05;;;;;;;4.60;1.80;;;;;;;11.33;72.68;97976.90;68031;1275;1018503;-70
2024/02/05 01:38:07;;;;;;;4.80;1.40;;;;;;;11.36;72.27;97967.41;68038;1275;1016264;-69
2024/02/05 01:41:10;;;;;;;4.50;1.70;;;;;;;11.29;73.05;97971.43;68045;1275;1016121;-69
2024/02/05 01:44:13;;;;;;;;;;;;;;;11.26;73.20;97959.77;68010;1275;1016066;-70
2024/02/05 01:47:16;;;;;;;3.60;1.10;;;;;;;11.33;72.71;97959.60;67962;1275;1016411;-70
2024/02/05 01:50:19;;;;;;;6.10;1.90;;;;;;;11.36;72.47;97946.20;68032;1275;1016027;-70
2024/02/05 01:53:22;;;;;;;8.40;2.90;;;;;;;11.39;72.70;97949.34;68023;1275;1016364;-70
2024/02/05 01:56:25;;;;;;;6.20;1.90;;;;;;;11.45;72.61;97937.82;67994;1275;1016449;-70
2024/02/05 01:59:28;;;;;;;11.60;2.60;;;;;;;11.09;75.32;97931.73;68043;1275;1016323;-68
2024/02/05 02:02:30;;;;;;;5.50;1.80;;;;;;;11.10;75.66;97924.44;67996;1275;1016469;-70
2024/02/05 02:05:32;;;;;;;4.60;1.30;;;;;;;11.22;74.88;97919.98;67967;1275;1016329;-70
2024/02/05 02:08:35;;;;;;;3.40;1.20;;;;;;;11.17;75.28;97910.93;68033;1275;1015855;-70
2024/02/05 02:11:38;;;;;;;5.50;1.20;;;;;;;11.04;76.38;97908.29;68041;1275;1015814;-69
2024/02/05 02:14:40;;;;;;;7.60;1.90;;;;;;;11.15;75.75;97899.04;67991;1275;1016448;-70
2024/02/05 02:17:43;;;;;;;5.20;1.60;;;;;;;11.06;76.21;97905.17;67978;1275;1017488;-71
2024/02/05 02:20:45;;;;;;;13.40;2.10;;;;;;;10.83;78.42;97904.27;68012;1275;1016877;-69
2024/02/05 02:23:48;;;;;;;;;;;;;;;10.89;78.35;97898.52;68022;1275;1016169;-70
2024/02/05 02:26:50;;;;;;;7.90;1.50;;;;;;;11.08;76.56;97900.96;67953;1275;1016477;-69
2024/02/05 02:29:53;;;;;;;13.70;2.60;;;;;;;11.12;76.09;97901.38;67993;1275;1018066;-69
2024/02/05 02:32:55;;;;;;;3.80;1.30;;;;;;;11.01;76.64;97903.23;68017;1275;1016446;-69
2024/02/05 02:35:58;;;;;;;4.40;1.40;;;;;;;10.70;79.49;97901.09;68023;1275;1016622;-70
2024/02/05 02:39:01;;;;;;;6.30;1.80;;;;;;;10.83;78.76;97887.14;68010;1274;1016441;-68
2024/02/05 02:42:04;;;;;;;4.70;1.40;;;;;;;10.89;78.62;97880.92;68043;1274;1018212;-69
2024/02/05 02:45:06;;;;;;;2.50;1.00;;;;;;;10.85;78.60;97887.89;67972;1274;1016446;-67
2024/02/05 02:48:09;;;;;;;5.20;1.10;;;;;;;10.87;78.31;97881.60;67976;1274;1017302;-70
2024/02/05 02:51:11;;;;;;;6.50;1.40;;;;;;;10.67;80.10;97875.05;68050;1274;1016455;-70
2024/02/05 02:54:14;;;;;;;3.40;1.00;;;;;;;10.83;79.24;97874.73;68039;1275;1016232;-70
2024/02/05 02:57:16;;;;;;;5.40;1.10;;;;;;;10.77;79.77;97880.75;67984;1274;1015998;-70
2024/02/05 03:00:19;;;;;;;2.20;1.00;;;;;;;10.94;78.35;97875.95;67983;1274;1016462;-70
2024/02/05 03:03:21;;;;;;;3.60;0.80;;;;;;;10.94;78.37;97884.17;68016;1274;1016422;-70
2024/02/05 03:06:24;;;;;;;2.60;1.10;;;;;;;10.85;79.15;97876.30;68023;1274;1016125;-70
2024/02/05 03:09:26;;;;;;;2.80;1.00;;;;;;;10.65;81.39;97884.30;67962;1275;1016228;-70
2024/02/05 03:12:29;;;;;;;2.40;0.80;;;;;;;10.71;81.23;97880.18;67989;1274;1016101;-71
2024/02/05 03:15:31;;;;;;;4.10;0.90;;;;;;;10.58;82.69;97881.56;68006;1274;1016394;-70
2024/02/05 03:18:34;;;;;;;5.80;1.30;;;;;;;10.64;82.61;97884.36;68010;1274;1017980;-70
2024/02/05 03:21:36;;;;;;;6.00;1.40;;;;;;;10.70;82.51;97870.64;67977;1274;1019562;-70
2024/02/05 03:24:40;;;;;;;5.50;1.30;;;;;;;10.85;81.16;97863.17;67969;1274;1019028;-70
2024/02/05 03:27:44;;;;;;;5.90;1.00;;;;;;;10.91;80.64;97866.27;67958;1274;1016009;-70
2024/02/05 03:30:46;;;;;;;1.80;0.80;;;;;;;10.85;80.95;97870.71;67989;1274;1016540;-70
2024/02/05 03:33:49;;;;;;;4.50;1.60;;;;;;;10.81;81.43;97862.24;67968;1275;1016637;-70
2024/02/05 03:36:51;;;;;;;3.80;1.10;;;;;;;10.91;80.85;97868.37;67990;1275;1016732;-70
2024/02/05 03:39:54;;;;;;;2.90;1.10;;;;;;;10.92;80.86;97873.13;68019;1274;1016396;-71
2024/02/05 03:42:56;;;;;;;4.20;1.10;;;;;;;10.68;83.88;97866.80;67975;1253;1016462;-71
2024/02/05 03:45:59;;;;;;;5.20;1.40;;;;;;;10.71;83.94;97853.59;67924;1275;1016599;-71
2024/02/05 03:49:01;;;;;;;4.40;0.90;;;;;;;10.69;84.23;97851.15;67971;1275;1016257;-70
2024/02/05 03:52:04;;;;;;;4.70;0.90;;;;;;;10.72;84.64;97843.77;67964;1275;1016467;-68
2024/02/05 03:55:06;;;;;;;2.40;0.60;;;;;;;10.79;84.25;97843.41;67931;1251;1017170;-70
2024/02/05 03:58:09;;;;;;;1.50;0.60;;;;;;;10.86;83.76;97841.44;67932;1274;1019678;-70
2024/02/05 04:01:11;;;;;;;3.60;0.80;;;;;;;10.87;83.17;97839.29;68017;1275;1016501;-64
2024/02/05 04:04:14;;;;;;;2.10;0.70;;;;;;;10.89;82.84;97832.63;67966;1275;1016494;-70
2024/02/05 04:07:16;;;;;;;5.10;1.00;;;;;;;10.94;82.64;97820.17;67945;1275;1016449;-70
2024/02/05 04:10:19;;;;;;;4.20;1.10;;;;;;;11.01;82.15;97810.90;67913;1275;1016421;-70
2024/02/05 04:13:21;;;;;;;3.90;1.00;;;;;;;11.04;81.90;97809.61;67935;1275;1016447;-70
2024/02/05 04:16:24;;;;;;;3.60;1.00;;;;;;;11.02;82.12;97815.52;68000;1275;1016391;-70
2024/02/05 04:19:27;;;;;;;3.30;0.80;;;;;;;10.90;83.28;97820.17;67983;1275;1016359;-70
2024/02/05 04:22:29;;;;;;;2.60;0.80;;;;;;;10.84;84.03;97826.40;67937;1275;1017068;-70
2024/02/05 04:25:32;;;;;;;4.70;1.30;;;;;;;11.07;81.91;97818.61;67950;1275;1015922;-69
2024/02/05 04:28:35;;;;;;;15.00;2.60;;;;;;;11.25;80.78;97800.93;67988;1275;1016446;-70
2024/02/05 04:31:38;;;;;;;8.30;2.70;;;;;;;11.29;79.96;97802.92;67960;1275;1016472;-70
2024/02/05 04:34:40;;;;;;;8.40;2.30;;;;;;;11.24;80.41;97801.55;67974;1275;1016139;-70
2024/02/05 04:37:43;;;;;;;5.60;1.50;;;;;;;11.24;80.57;97790.20;68026;1275;1016062;-69
2024/02/05 04:40:46;;;;;;;7.60;2.40;;;;;;;11.31;79.94;97790.15;67916;1275;1016469;-70
2024/02/05 04:43:48;;;;;;;6.40;2.40;;;;;;;11.37;79.37;97789.13;68028;1275;1016579;-70
2024/02/05 04:46:51;;;;;;;4.30;1.50;;;;;;;11.27;80.13;97789.76;67991;1275;1016246;-69
2024/02/05 04:49:53;;;;;;;5.60;1.30;;;;;;;11.08;81.73;97784.48;67987;1275;1016130;-70
2024/02/05 04:52:56;;;;;;;7.20;2.20;;;;;;;11.20;81.48;97774.58;67963;1275;1016295;-70
2024/02/05 04:55:58;;;;;;;9.30;2.80;;;;;;;11.26;81.20;97762.03;67954;1275;1017295;-70
2024/02/05 04:59:01;;;;;;;7.90;1.80;;;;;;;11.16;82.72;97782.27;68001;1275;1016411;-69
2024/02/05 05:02:03;;;;;;;8.10;1.90;;;;;;;10.83;86.35;97790.29;68031;1275;1017034;-70
2024/02/05 05:05:06;;;;;;;5.90;1.80;;;;;;;10.85;86.91;97777.91;67932;1275;1016241;-70
2024/02/05 05:08:08;;;;;;;7.90;2.10;;;;;;;10.84;87.39;97775.46;67950;1275;1016249;-68
2024/02/05 05:11:11;;;;;;;9.30;2.30;;;;;;;11.13;85.53;97774.65;68001;1275;1016408;-70
2024/02/05 05:14:13;;;;;;;7.00;1.90;;;;;;;11.24;84.30;97769.48;68005;1275;1016457;-70
2024/02/05 05:17:16;;;;;;;7.00;2.30;;;;;;;11.20;84.81;97768.77;67936;1275;1016250;-70
2024/02/05 05:20:19;;;;;;;6.40;2.10;;;;;;;11.37;84.02;97764.13;67979;1275;1016472;-71
2024/02/05 05:23:21;;;;;;;6.50;1.90;;;;;;;11.50;82.73;97763.23;67977;1275;1016400;-70
2024/02/05 05:26:24;;;;;;;4.20;2.00;;;;;;;11.50;82.69;97765.30;67981;1275;1016420;-69
2024/02/05 05:29:26;;;;;;;7.30;2.30;;;;;;;11.46;83.32;97763.56;67934;1275;1016899;-70
2024/02/05 05:32:30;;;;;;;9.40;2.20;;;;;;;11.52;83.07;97765.00;67932;1274;1016478;-70
2024/02/05 05:35:33;;;;;;;12.70;3.40;;;;;;;11.62;82.24;97758.64;67956;1275;1016287;-67
2024/02/05 05:38:35;;;;;;;10.10;3.10;;;;;;;11.57;82.83;97762.66;67984;1275;1016558;-69
2024/02/05 05:41:38;;;;;;;11.60;3.20;;;;;;;11.61;82.57;97767.75;68005;1275;1016474;-70
2024/02/05 05:44:40;;;;;;;11.70;3.00;;;;;;;11.59;82.59;97760.60;65387;1275;5367982;-69
2024/02/05 05:47:43;;;;;;;7.20;2.40;;;;;;;11.43;84.02;97757.88;67940;1275;1016408;-70
2024/02/05 05:50:46;;;;;;;6.00;2.10;;;;;;;11.64;82.93;97756.48;68017;1275;1016484;-69
2024/02/05 05:53:49;;;;;;;8.00;2.30;;;;;;;11.64;82.93;97754.53;67965;1275;1016481;-70
2024/02/05 05:56:53;;;;;;;6.90;2.40;;;;;;;11.35;85.60;97749.08;67972;1275;1016465;-70
2024/02/05 05:59:56;;;;;;;5.60;2.10;;;;;;;11.44;85.16;97753.44;68006;1275;1016550;-70
2024/02/05 06:02:59;;;;;;;14.90;3.40;;;;;;;11.54;84.60;97753.83;67955;1275;1016170;-70
2024/02/05 06:06:04;;;;;;;15.80;3.40;;;;;;;11.56;84.36;97750.52;67987;1275;1016330;-70
2024/02/05 06:09:07;;;;;;;11.20;3.00;;;;;;;11.53;84.63;97741.13;67927;1275;1016198;-70
2024/02/05 06:12:09;;;;;;;11.20;2.80;;;;;;;11.58;84.51;97738.78;67971;1275;1016598;-70
2024/02/05 06:15:14;;;;;;;11.10;2.80;;;;;;;11.46;85.54;97738.55;68045;1275;1016285;-70
2024/02/05 06:18:16;;;;;;;29.90;7.70;;;;;;;11.61;84.72;97746.22;68005;1274;1015776;-70
2024/02/05 06:21:19;;;;;;;26.80;7.40;;;;;;;11.70;83.91;97745.52;67957;1274;1016468;-70
2024/02/05 06:24:21;;;;;;;17.30;4.30;;;;;;;11.69;83.84;97750.88;67955;1275;1016793;-70
2024/02/05 06:27:24;;;;;;;11.50;2.90;;;;;;;11.73;83.71;97748.37;67974;1275;1016442;-69
2024/02/05 06:30:27;;;;;;;7.80;2.60;;;;;;;11.77;83.41;97751.88;68014;1274;1016230;-70
2024/02/05 06:33:31;;;;;;;9.30;2.70;;;;;;;11.82;82.98;97756.11;67963;1274;1018545;-70
2024/02/05 06:36:34;;;;;;;9.00;2.90;;;;;;;11.75;83.86;97756.48;67949;1275;1016533;-70
2024/02/05 06:39:36;;;;;;;11.40;3.40;;;;;;;11.86;83.30;97763.83;67991;1275;1016484;-70
2024/02/05 06:42:39;;;;;;;13.00;3.50;;;;;;;11.78;84.13;97762.52;67991;1274;1019125;-70
2024/02/05 06:45:41;;;;;;;16.20;4.30;;;;;;;11.85;83.78;97762.30;67993;1274;1018834;-70
2024/02/05 06:48:44;;;;;;;16.70;4.10;;;;;;;11.94;83.16;97773.48;67972;1274;1016488;-69
2024/02/05 06:51:46;;;;;;;13.70;3.50;;;;;;;12.12;82.00;97776.39;67979;1275;1016211;-69
2024/02/05 06:54:49;;;;;;;14.10;3.30;;;;;;;12.01;83.06;97783.09;67995;1275;1017144;-70
2024/02/05 06:57:52;;;;;;;16.80;3.80;;;;;;;11.99;83.89;97792.69;67953;1274;1016410;-69
2024/02/05 07:00:54;;;;;;;10.30;3.40;;;;;;;11.98;84.65;97792.98;67935;1275;1018376;-67
2024/02/05 07:03:57;;;;;;;13.80;3.10;;;;;;;12.10;84.16;97790.23;68010;1274;1018037;-70
2024/02/05 07:06:59;;;;;;;10.20;2.90;;;;;;;12.18;83.81;97787.24;67986;1274;1017843;-70
2024/02/05 07:10:02;;;;;;;10.80;2.90;;;;;;;12.29;83.21;97791.43;67962;1274;1016511;-70
2024/02/05 07:13:05;;;;;;;8.50;2.60;;;;;;;12.18;84.47;97794.83;67960;1274;1016378;-71
2024/02/05 07:16:07;;;;;;;5.30;1.70;;;;;;;12.05;86.76;97793.77;68019;1275;1016517;-69
2024/02/05 07:19:10;;;;;;;4.80;1.50;;;;;;;12.11;86.91;97797.66;68022;1274;1016245;-70
2024/02/05 07:22:12;;;;;;;4.80;1.50;;;;;;;12.12;86.80;97805.27;67987;1274;1016184;-69
2024/02/05 07:25:15;;;;;;;3.70;1.50;;;;;;;12.13;87.73;97803.15;67946;1274;1016269;-70
2024/02/05 07:28:18;;;;;;;5.00;1.80;;;;;;;12.28;87.02;97803.63;68009;1274;1016114;-69
2024/02/05 07:31:20;;;;;;;;;;;;;;;12.44;85.38;97807.87;67985;1274;1016354;-70
2024/02/05 07:34:23;;;;;;;3.20;1.30;;;;;;;12.47;85.42;97813.56;67941;1274;1016223;-71
2024/02/05 07:37:26;;;;;;;6.30;1.50;;;;;;;12.43;86.22;97822.73;67994;1274;1015954;-70
2024/02/05 07:40:28;;;;;;;4.30;1.50;;;;;;;12.46;86.23;97823.31;67948;1274;1016317;-70
2024/02/05 07:43:31;;;;;;;5.30;1.50;;;;;;;12.50;86.05;97835.29;67960;1274;1016507;-70
2024/02/05 07:46:33;;;;;;;4.70;1.30;;;;;;;12.40;86.85;97841.86;67937;1274;1016367;-70
2024/02/05 07:49:37;;;;;;;6.50;1.80;;;;;;;12.42;87.32;97842.79;67979;1274;1016696;-70
2024/02/05 07:52:39;;;;;;;6.60;1.80;;;;;;;12.36;88.87;97839.77;67986;1274;1018415;-70
2024/02/05 07:55:42;;;;;;;2.50;1.10;;;;;;;12.43;88.04;97850.36;67959;1274;1018314;-68
2024/02/05 07:58:45;;;;;;;3.60;1.30;;;;;;;12.28;91.67;97849.02;67958;1275;1016237;-69
2024/02/05 08:01:47;;;;;;;6.80;1.40;;;;;;;12.41;91.21;97851.81;67959;1274;1018905;-64
2024/02/05 08:04:50;;;;;;;2.30;1.00;;;;;;;12.62;88.18;97850.50;68022;1275;1016450;-69
2024/02/05 08:07:52;;;;;;;2.80;1.10;;;;;;;12.56;87.12;97864.36;68022;1274;1016490;-69
2024/02/05 08:10:55;;;;;;;5.10;1.50;;;;;;;12.61;87.59;97866.05;67968;1274;1016384;-67
2024/02/05 08:13:57;;;;;;;3.40;1.10;;;;;;;12.67;87.05;97878.38;67958;1274;1016442;-70
2024/02/05 08:17:00;;;;;;;;;;;;;;;12.94;85.43;97879.73;68006;1274;1016463;-69
2024/02/05 08:20:02;;;;;;;4.70;1.10;;;;;;;12.98;85.05;97879.61;68009;1274;1016540;-69
2024/02/05 08:23:05;;;;;;;;;;;;;;;12.82;85.40;97890.60;67948;1275;1016456;-69
2024/02/05 08:26:08;;;;;;;6.70;1.50;;;;;;;12.88;85.74;97883.80;68017;1275;1016470;-69
2024/02/05 08:29:12;;;;;;;5.40;1.20;;;;;;;12.89;85.89;97879.88;67983;1274;1016204;-69
2024/02/05 08:32:14;;;;;;;4.40;1.00;;;;;;;12.93;85.25;97896.83;68000;1275;1016254;-68
2024/02/05 08:35:17;;;;;;;3.90;1.50;;;;;;;12.96;83.88;97899.59;67959;1275;1017671;-69
2024/02/05 08:38:20;;;;;;;5.60;1.30;;;;;;;12.93;84.33;97890.69;68016;1274;1016140;-69
2024/02/05 08:41:22;;;;;;;6.30;1.40;;;;;;;12.90;84.17;97895.88;68010;1275;1016477;-69
2024/02/05 08:44:26;;;;;;;3.80;1.10;;;;;;;12.93;85.13;97898.65;67992;1275;1017060;-68
2024/02/05 08:47:29;;;;;;;3.30;0.90;;;;;;;12.81;85.66;97912.46;67989;1275;1016032;-67
2024/02/05 08:50:33;;;;;;;2.80;1.00;;;;;;;12.89;86.90;97903.70;67991;1275;1016060;-69
2024/02/05 08:53:37;;;;;;;4.50;1.40;;;;;;;13.15;84.56;97900.27;67955;1274;1016526;-69
2024/02/05 08:56:40;;;;;;;2.80;1.00;;;;;;;13.12;85.43;97905.28;68052;1275;1016419;-69
2024/02/05 08:59:42;;;;;;;3.90;1.20;;;;;;;13.13;85.18;97903.73;67992;1275;1016365;-69
2024/02/05 09:02:45;;;;;;;3.70;1.40;;;;;;;13.18;84.46;97910.57;67966;1275;1016138;-67
2024/02/05 09:05:49;;;;;;;6.40;1.40;;;;;;;13.28;83.53;97916.13;68020;1275;1016476;-69
2024/02/05 09:08:51;;;;;;;6.20;1.40;;;;;;;13.22;83.37;97915.08;68034;1275;1016487;-69
2024/02/05 09:11:54;;;;;;;5.90;1.60;;;;;;;13.24;84.23;97919.84;68039;1275;1016504;-69
2024/02/05 09:14:56;;;;;;;2.80;1.10;;;;;;;13.29;83.55;97921.50;68075;1275;1018699;-68
2024/02/05 09:17:59;;;;;;;4.40;1.10;;;;;;;13.29;82.64;97928.52;67986;1275;1016116;-69
2024/02/05 09:21:01;;;;;;;2.90;1.00;;;;;;;13.37;82.79;97919.97;67962;1275;1016409;-69
2024/02/05 09:24:04;;;;;;;;;;;;;;;13.33;82.04;97922.60;68020;1275;1016227;-69
2024/02/05 09:27:06;;;;;;;2.20;0.80;;;;;;;13.37;81.81;97925.91;68040;1275;1016467;-69
2024/02/05 09:30:09;;;;;;;2.50;1.10;;;;;;;13.44;82.13;97918.68;68009;1275;1017134;-68
2024/02/05 09:33:11;;;;;;;2.50;0.80;;;;;;;13.45;81.54;97919.14;67961;1275;1016506;-67
2024/02/05 09:36:14;;;;;;;5.90;1.40;;;;;;;13.41;80.70;97921.42;68047;1275;1016054;-69
2024/02/05 09:39:17;;;;;;;5.30;1.40;;;;;;;13.54;81.15;97918.21;68007;1275;1016519;-69
2024/02/05 09:42:20;;;;;;;5.60;1.30;;;;;;;13.65;81.33;97918.23;68009;1275;1015797;-68
2024/02/05 09:45:22;;;;;;;5.60;1.30;;;;;;;13.63;81.65;97922.50;68044;1275;1016463;-68
2024/02/05 09:48:25;;;;;;;6.10;1.20;;;;;;;13.59;81.55;97921.80;68029;1275;1019531;-69
2024/02/05 09:51:27;;;;;;;;;;;;;;;13.61;81.68;97917.63;67985;1275;1016474;-69
2024/02/05 09:54:30;;;;;;;5.80;1.50;;;;;;;13.41;83.50;97919.85;68059;1275;1016471;-68
2024/02/05 09:57:32;;;;;;;4.20;1.40;;;;;;;13.35;84.71;97915.55;68026;1275;1015866;-70
2024/02/05 10:00:35;;;;;;;;;;;;;;;13.31;85.15;97917.28;68031;1275;1016406;-69
2024/02/05 10:03:38;;;;;;;3.90;1.20;;;;;;;13.34;83.68;97925.34;67996;1275;1016664;-68
2024/02/05 10:06:40;;;;;;;5.60;1.40;;;;;;;13.35;83.72;97921.35;68052;1275;1016504;-68
2024/02/05 10:09:43;;;;;;;7.30;1.60;;;;;;;13.29;82.49;97926.63;67989;1275;1016522;-69
2024/02/05 10:12:47;;;;;;;9.50;1.90;;;;;;;13.28;82.97;97918.48;67978;1275;1016398;-70
2024/02/05 10:15:49;;;;;;;2.60;1.00;;;;;;;13.23;82.67;97921.67;67960;1275;1018404;-69
2024/02/05 10:18:52;;;;;;;5.50;1.30;;;;;;;13.18;84.25;97924.02;68008;1275;1016144;-69
2024/02/05 10:21:56;;;;;;;4.00;1.30;;;;;;;13.21;83.49;97921.55;68019;1275;1016263;-69
2024/02/05 10:25:01;;;;;;;3.40;1.30;;;;;;;13.23;83.40;97922.95;68061;1275;1016520;-69
2024/02/05 10:28:04;;;;;;;3.90;1.30;;;;;;;13.17;84.00;97927.67;68013;1275;1016558;-69
2024/02/05 10:31:06;;;;;;;5.20;1.20;;;;;;;13.15;84.78;97917.29;68037;1275;1016267;-69
2024/02/05 10:34:09;;;;;;;4.40;1.20;;;;;;;13.06;86.76;97918.96;68032;1275;1016362;-69
2024/02/05 10:37:13;;;;;;;4.00;1.10;;;;;;;13.19;86.02;97919.22;67989;1275;1018106;-69
2024/02/05 10:40:16;;;;;;;6.90;1.80;;;;;;;13.20;86.14;97914.21;68011;1275;1016550;-69
2024/02/05 10:43:18;;;;;;;7.00;1.70;;;;;;;13.12;86.44;97915.61;68035;1275;1018407;-69
2024/02/05 10:46:21;;;;;;;4.20;1.40;;;;;;;13.07;87.29;97918.00;68061;1275;1016479;-69
2024/02/05 10:49:23;;;;;;;7.60;2.00;;;;;;;13.14;86.73;97908.77;68005;1275;1016290;-69
2024/02/05 10:52:26;;;;;;;5.30;1.70;;;;;;;13.14;86.40;97920.15;68002;1275;1016938;-69
2024/02/05 10:55:29;;;;;;;6.20;1.70;;;;;;;13.20;85.89;97920.70;68047;1275;1017681;-69
2024/02/05 10:58:32;;;;;;;6.40;1.70;;;;;;;13.12;86.66;97922.47;67938;1275;1016566;-67
2024/02/05 11:01:37;;;;;;;8.30;1.70;;;;;;;13.25;86.66;97919.98;67893;1275;1016923;-68
2024/02/05 11:04:39;;;;;;;5.50;1.30;;;;;;;13.31;86.00;97922.77;68011;1275;1016781;-69
2024/02/05 11:07:42;;;;;;;;;;;;;;;13.38;85.41;97920.62;68003;1275;1020319;-69
2024/02/05 11:10:45;;;;;;;6.60;1.80;;;;;;;13.45;84.88;97923.15;68050;1275;1018232;-69
2024/02/05 11:13:47;;;;;;;5.40;1.60;;;;;;;13.49;84.55;97921.99;68036;1274;1016429;-69
2024/02/05 11:16:50;;;;;;;3.70;1.50;;;;;;;13.40;84.41;97929.44;68007;1274;1016294;-69
2024/02/05 11:19:52;;;;;;;5.30;1.60;;;;;;;13.40;83.33;97920.62;68029;1274;1016465;-69
2024/02/05 11:22:55;;;;;;;5.60;1.40;;;;;;;13.34;82.92;97915.31;68027;1275;1016490;-69
2024/02/05 11:25:58;;;;;;;4.40;1.50;;;;;;;13.24;84.50;97916.84;67972;1275;1016502;-69
2024/02/05 11:29:01;;;;;;;3.30;1.40;;;;;;;13.18;83.82;97913.67;68013;1275;1018701;-69
2024/02/05 11:32:03;;;;;;;5.00;1.50;;;;;;;13.07;82.93;97923.39;68039;1274;1016644;-69
2024/02/05 11:35:06;;;;;;;;;;;;;;;12.93;85.02;97933.90;67994;1275;1016439;-68
2024/02/05 11:38:08;;;;;;;6.20;1.60;;;;;;;12.84;85.91;97928.48;67986;1274;1018114;-69
2024/02/05 11:41:11;;;;;;;7.30;1.60;;;;;;;12.79;86.11;97938.94;68021;1274;1017117;-69
2024/02/05 11:44:13;;;;;;;8.10;1.70;;;;;;;12.63;88.14;97936.92;68028;1275;1016458;-69
2024/02/05 11:47:16;;;;;;;7.50;2.10;;;;;;;12.61;89.63;97936.01;67961;1274;1016352;-69
2024/02/05 11:50:19;;;;;;;5.60;1.70;;;;;;;12.72;89.19;97923.34;68006;1274;1016408;-69
2024/02/05 11:53:22;;;;;;;4.90;1.60;;;;;;;12.75;87.52;97932.62;67978;1274;1018850;-68
2024/02/05 11:56:24;;;;;;;5.20;1.30;;;;;;;12.65;88.14;97933.45;67964;1274;1018460;-68
2024/02/05 11:59:27;;;;;;;6.10;1.60;;;;;;;12.68;88.44;97928.65;68052;1275;1017243;-68
2024/02/05 12:02:30;;;;;;;3.90;1.30;;;;;;;12.73;88.18;97935.89;67993;1274;1016433;-69
2024/02/05 12:05:33;;;;;;;3.70;1.10;;;;;;;12.87;86.33;97935.96;68032;1274;1016561;-68
2024/02/05 12:08:35;;;;;;;5.50;1.40;;;;;;;12.62;87.64;97940.14;68056;1275;1016543;-69
2024/02/05 12:11:38;;;;;;;3.70;1.60;;;;;;;12.60;88.46;97932.45;68056;1274;1016274;-67
2024/02/05 12:14:40;;;;;;;8.50;1.90;;;;;;;12.61;88.64;97937.25;68006;1274;1016824;-68
2024/02/05 12:17:43;;;;;;;6.00;1.80;;;;;;;12.62;88.28;97949.43;68010;1275;1016327;-69
2024/02/05 12:20:47;;;;;;;5.30;1.50;;;;;;;12.65;87.98;97947.31;68071;1275;1016347;-68
2024/02/05 12:23:50;;;;;;;6.60;1.80;;;;;;;12.64;88.82;97943.14;68067;1274;1016469;-68
2024/02/05 12:26:52;;;;;;;;;;;;;;;12.71;88.87;97936.81;68023;1274;1016504;-68
2024/02/05 12:29:55;;;;;;;7.30;2.10;;;;;;;12.87;87.75;97933.03;68024;1274;1016234;-68
2024/02/05 12:32:57;;;;;;;7.80;2.10;;;;;;;12.76;87.60;97941.94;68016;1274;1016350;-68
2024/02/05 12:36:00;;;;;;;6.40;1.60;;;;;;;12.81;86.92;97941.95;68021;1274;1016394;-69
2024/02/05 12:39:02;;;;;;;8.20;1.90;;;;;;;12.76;86.56;97936.73;68038;1274;1016480;-69
2024/02/05 12:42:05;;;;;;;9.40;2.30;;;;;;;12.71;86.70;97935.77;68032;1274;1016259;-69
2024/02/05 12:45:07;;;;;;;7.10;2.10;;;;;;;12.73;86.34;97938.21;68052;1274;1016378;-69
2024/02/05 12:48:10;;;;;;;8.10;2.20;;;;;;;12.73;86.20;97937.71;68045;1275;1016690;-69
2024/02/05 12:51:12;;;;;;;9.00;2.30;;;;;;;12.79;84.77;97929.45;68004;1274;1018656;-69
2024/02/05 12:54:15;;;;;;;8.00;1.80;;;;;;;13.04;83.41;97930.17;68021;1274;1018633;-69
2024/02/05 12:57:17;;;;;;;9.30;2.50;;;;;;;13.06;83.19;97930.17;68030;1274;1016352;-68
2024/02/05 13:00:21;;;;;;;8.70;2.00;;;;;;;13.18;82.24;97930.05;68036;1275;1016535;-68
2024/02/05 13:03:23;;;;;;;6.80;1.90;;;;;;;13.07;82.93;97925.70;68001;1274;1016390;-69
2024/02/05 13:06:26;;;;;;;9.50;2.30;;;;;;;12.91;84.53;97924.41;68056;1275;1016463;-69
2024/02/05 13:09:28;;;;;;;6.60;2.20;;;;;;;12.89;84.87;97923.54;68054;1275;1016454;-68
2024/02/05 13:12:33;;;;;;;6.30;2.00;;;;;;;12.86;85.57;97921.48;67996;1275;1016261;-68
2024/02/05 13:15:35;;;;;;;9.40;2.50;;;;;;;12.94;84.77;97925.17;67999;1275;1019936;-69
2024/02/05 13:18:38;;;;;;;7.90;2.40;;;;;;;12.98;84.91;97924.52;68040;1275;1016416;-68
2024/02/05 13:21:41;;;;;;;13.60;3.20;;;;;;;12.97;85.28;97927.05;68019;1275;1016436;-69
2024/02/05 13:24:43;;;;;;;12.40;3.30;;;;;;;13.05;84.65;97930.39;67954;1275;1016521;-69
2024/02/05 13:27:46;;;;;;;;;;;;;;;13.06;84.11;97934.55;68050;1275;1016213;-69
2024/02/05 13:30:49;;;;;;;13.50;3.60;;;;;;;13.16;83.65;97935.42;68060;1275;1016448;-69
2024/02/05 13:33:52;;;;;;;11.10;3.10;;;;;;;13.16;83.83;97941.08;68026;1275;1018145;-69
2024/02/05 13:36:55;;;;;;;;;;;;;;;13.27;83.14;97942.09;68055;1275;1016317;-69
2024/02/05 13:39:57;;;;;;;13.90;3.80;;;;;;;13.12;84.53;97943.84;68011;1275;1016290;-67
2024/02/05 13:43:00;;;;;;;14.90;3.60;;;;;;;13.09;85.13;97942.20;68048;1275;1015975;-69
2024/02/05 13:46:03;;;;;;;12.40;3.40;;;;;;;13.10;85.40;97951.06;68057;1275;1016425;-69
2024/02/05 13:49:05;;;;;;;16.60;4.40;;;;;;;13.21;84.32;97928.88;67971;1275;1016396;-69
2024/02/05 13:52:08;;;;;;;17.60;4.80;;;;;;;13.29;83.82;97949.80;68031;1275;1016895;-69
2024/02/05 13:55:12;;;;;;;16.30;4.70;;;;;;;13.28;83.71;97948.31;68012;1275;1016930;-70
2024/02/05 13:58:15;;;;;;;12.90;4.00;;;;;;;13.28;83.66;97953.21;68019;1275;1016644;-69
2024/02/05 14:01:19;;;;;;;18.70;4.60;;;;;;;13.15;84.94;97949.05;68038;1275;1018183;-69